Time;durP1;ratioP1;P1;durP2;ratioP2;P2;SDS_P1;SDS_P2;PMS_P1;PMS_P2;Temp;Humidity;BMP_temperature;BMP_pressure;BME280_temperature;BME280_humidity;BME280_pressure;Samples;Min_cycle;Max_cycle;Signal;HPM_P1;HPM_P2
2024/02/27 18:10:46;;;;;;;;;11.00;9.00;;;;;;;;5114421;27;1373423;-68
2024/02/27 18:13:11;;;;;;;;;11.25;10.00;;;;;;;;5117848;27;8820;-66
2024/02/27 18:15:37;;;;;;;;;9.25;9.25;;;;;;;;5119674;27;8797;-66
2024/02/27 18:18:02;;;;;;;;;10.50;8.00;;;;;;;;5137603;27;9506;-66
2024/02/27 18:20:28;;;;;;;;;6.00;6.00;;;;;;;;5119566;27;8950;-68
2024/02/27 18:22:54;;;;;;;;;9.00;7.25;;;;;;;;5135369;27;8805;-68
2024/02/27 18:25:22;;;;;;;;;10.75;8.00;;;;;;;;5137393;27;11372;-69
2024/02/27 18:27:47;;;;;;;;;9.50;7.25;;;;;;;;5138174;27;8823;-69
2024/02/27 18:30:13;;;;;;;;;7.50;6.00;;;;;;;;5138004;27;11347;-69
2024/02/27 18:32:39;;;;;;;;;5.00;5.00;;;;;;;;5120974;27;8910;-68
2024/02/27 18:35:06;;;;;;;;;5.50;4.75;;;;;;;;5135151;27;8792;-72
2024/02/27 18:37:32;;;;;;;;;5.00;5.00;;;;;;;;5119847;27;11399;-69
2024/02/27 18:39:58;;;;;;;;;4.00;4.00;;;;;;;;5134541;27;11374;-71
2024/02/27 18:42:23;;;;;;;;;4.00;4.00;;;;;;;;5139912;27;8840;-75
2024/02/27 18:44:51;;;;;;;;;9.25;7.50;;;;;;;;5136333;27;8832;-68
2024/02/27 18:47:19;;;;;;;;;7.00;7.00;;;;;;;;5139087;27;8822;-68
2024/02/27 18:49:44;;;;;;;;;10.50;8.25;;;;;;;;5135393;27;11386;-66
2024/02/27 18:52:10;;;;;;;;;17.25;14.50;;;;;;;;5136306;27;11490;-67
2024/02/27 18:54:35;;;;;;;;;19.00;14.00;;;;;;;;5147909;27;8825;-67
2024/02/27 18:57:00;;;;;;;;;17.50;16.50;;;;;;;;5139834;27;8777;-67
2024/02/27 18:59:25;;;;;;;;;12.75;12.75;;;;;;;;5135924;27;8819;-67
2024/02/27 19:01:51;;;;;;;;;12.75;11.00;;;;;;;;5136220;27;8777;-67
2024/02/27 19:04:19;;;;;;;;;10.75;9.75;;;;;;;;5145743;27;8800;-69
2024/02/27 19:06:44;;;;;;;;;15.75;12.75;;;;;;;;5137947;27;8771;-67
2024/02/27 19:09:09;;;;;;;;;10.75;9.25;;;;;;;;5136346;27;11409;-67
2024/02/27 19:11:35;;;;;;;;;8.00;7.50;;;;;;;;5135796;27;8799;-69
2024/02/27 19:14:00;;;;;;;;;10.00;7.50;;;;;;;;5137025;27;8790;-69
2024/02/27 19:16:25;;;;;;;;;6.75;6.50;;;;;;;;5138574;27;8786;-68
2024/02/27 19:18:52;;;;;;;;;3.00;3.00;;;;;;;;5134096;27;8887;-70
2024/02/27 19:21:17;;;;;;;;;6.50;5.50;;;;;;;;5124633;27;8787;-67
2024/02/27 19:23:42;;;;;;;;;4.75;4.00;;;;;;;;5125832;27;11345;-68
2024/02/27 19:26:08;;;;;;;;;4.00;4.00;;;;;;;;5123815;27;8785;-68
2024/02/27 19:28:40;;;;;;;;;5.25;5.25;;;;;;;;5122727;27;8788;-67
2024/02/27 19:31:05;;;;;;;;;5.75;4.25;;;;;;;;5105625;27;8804;-67
2024/02/27 19:33:30;;;;;;;;;5.00;4.00;;;;;;;;5125163;27;11377;-67
2024/02/27 19:35:56;;;;;;;;;4.75;4.00;;;;;;;;5121273;27;8810;-67
2024/02/27 19:38:21;;;;;;;;;5.50;5.50;;;;;;;;5124404;27;9546;-72
2024/02/27 19:40:46;;;;;;;;;4.00;4.00;;;;;;;;5108533;27;9563;-69
2024/02/27 19:43:30;;;;;;;;;4.25;3.00;;;;;;;;5120103;27;8784;-69
2024/02/27 19:45:56;;;;;;;;;2.25;2.25;;;;;;;;5121493;27;8796;-72
2024/02/27 19:48:22;;;;;;;;;4.25;2.00;;;;;;;;5124467;27;11563;-68
2024/02/27 19:50:54;;;;;;;;;2.25;2.25;;;;;;;;5119436;27;8900;-68
2024/02/27 19:53:20;;;;;;;;;2.00;2.00;;;;;;;;5124649;27;8839;-69
2024/02/27 19:55:45;;;;;;;;;1.75;1.75;;;;;;;;5121838;27;11344;-68
2024/02/27 19:58:10;;;;;;;;;2.50;2.00;;;;;;;;5121362;27;9414;-69
2024/02/27 20:00:43;;;;;;;;;3.50;1.75;;;;;;;;5118622;27;8805;-71
2024/02/27 20:03:08;;;;;;;;;2.50;2.50;;;;;;;;5120744;27;8927;-69
2024/02/27 20:05:35;;;;;;;;;1.50;1.50;;;;;;;;5122650;27;11225;-69
2024/02/27 20:08:01;;;;;;;;;2.00;2.00;;;;;;;;5104595;27;8834;-70
2024/02/27 20:10:26;;;;;;;;;3.00;1.75;;;;;;;;5120370;27;11367;-70
2024/02/27 20:12:51;;;;;;;;;2.00;2.00;;;;;;;;5121594;27;8822;-71
2024/02/27 20:15:18;;;;;;;;;2.00;1.50;;;;;;;;5124836;27;8778;-70
2024/02/27 20:17:44;;;;;;;;;1.00;1.00;;;;;;;;5105951;27;8801;-70
2024/02/27 20:20:09;;;;;;;;;1.00;1.00;;;;;;;;5121605;27;11384;-69
2024/02/27 20:22:35;;;;;;;;;1.00;1.00;;;;;;;;5114288;27;8812;-69
2024/02/27 20:25:01;;;;;;;;;1.00;1.00;;;;;;;;5113807;27;8824;-66
2024/02/27 20:27:27;;;;;;;;;1.00;1.00;;;;;;;;5125966;27;8813;-67
2024/02/27 20:29:52;;;;;;;;;4.50;1.50;;;;;;;;5103276;27;11497;-66
2024/02/27 20:32:20;;;;;;;;;3.25;1.00;;;;;;;;5049333;28;8913;-67
2024/02/27 20:34:48;;;;;;;;;1.00;1.00;;;;;;;;5051383;28;9874;-71
2024/02/27 20:37:14;;;;;;;;;1.75;1.50;;;;;;;;5051407;28;11153;-67
2024/02/27 20:39:39;;;;;;;;;0.00;0.00;;;;;;;;5050018;28;11391;-67
2024/02/27 20:42:04;;;;;;;;;0.75;0.25;;;;;;;;5051166;28;8949;-67
2024/02/27 20:44:37;;;;;;;;;0.25;0.25;;;;;;;;5043110;28;8974;-67
2024/02/27 20:47:03;;;;;;;;;1.50;0.25;;;;;;;;5031370;28;8791;-68
2024/02/27 20:49:28;;;;;;;;;1.00;1.00;;;;;;;;5030925;28;11237;-71
2024/02/27 20:51:53;;;;;;;;;0.00;0.00;;;;;;;;5031346;28;8792;-66
2024/02/27 20:54:19;;;;;;;;;1.00;1.00;;;;;;;;5032766;28;8818;-66
2024/02/27 20:56:44;;;;;;;;;2.00;0.00;;;;;;;;5051248;28;8846;-67
2024/02/27 20:59:09;;;;;;;;;1.75;0.00;;;;;;;;5050726;28;8785;-67
2024/02/27 21:01:35;;;;;;;;;1.50;0.00;;;;;;;;5050982;28;8810;-67
2024/02/27 21:04:00;;;;;;;;;0.25;0.25;;;;;;;;5049595;28;8797;-67
2024/02/27 21:06:25;;;;;;;;;0.00;0.00;;;;;;;;5049446;28;8832;-67
2024/02/27 21:08:51;;;;;;;;;2.00;1.00;;;;;;;;5050403;28;8845;-67
2024/02/27 21:11:16;;;;;;;;;2.00;2.00;;;;;;;;5050772;28;8871;-67
2024/02/27 21:13:42;;;;;;;;;3.25;1.00;;;;;;;;5050382;28;9706;-67
2024/02/27 21:16:08;;;;;;;;;2.00;2.00;;;;;;;;5050645;28;8789;-67
2024/02/27 21:18:33;;;;;;;;;1.00;1.00;;;;;;;;5050701;28;8809;-67
2024/02/27 21:20:58;;;;;;;;;2.00;1.00;;;;;;;;5050682;28;8902;-67
2024/02/27 21:23:24;;;;;;;;;5.00;2.00;;;;;;;;5049079;28;8812;-67
2024/02/27 21:25:49;;;;;;;;;0.00;0.00;;;;;;;;5050282;28;8835;-67
2024/02/27 21:28:14;;;;;;;;;2.00;1.00;;;;;;;;5049969;28;8793;-67
2024/02/27 21:30:39;;;;;;;;;1.00;1.00;;;;;;;;5050023;28;8994;-67
2024/02/27 21:33:06;;;;;;;;;1.00;1.00;;;;;;;;5050283;28;8805;-67
2024/02/27 21:35:31;;;;;;;;;2.00;2.00;;;;;;;;5048754;28;8906;-67
2024/02/27 21:37:57;;;;;;;;;3.00;1.50;;;;;;;;5048837;28;11436;-67
2024/02/27 21:40:22;;;;;;;;;5.75;2.75;;;;;;;;5050180;28;8793;-67
2024/02/27 21:42:47;;;;;;;;;2.00;2.00;;;;;;;;5050010;28;9396;-67
2024/02/27 21:45:12;;;;;;;;;4.50;4.00;;;;;;;;5049435;28;8809;-66
2024/02/27 21:47:38;;;;;;;;;5.75;4.50;;;;;;;;5048362;28;9531;-67
2024/02/27 21:50:03;;;;;;;;;2.25;2.25;;;;;;;;5049786;28;8898;-66
2024/02/27 21:52:29;;;;;;;;;2.75;2.00;;;;;;;;5049768;28;8829;-66
2024/02/27 21:54:57;;;;;;;;;3.00;2.00;;;;;;;;5049675;28;8816;-66
2024/02/27 21:57:22;;;;;;;;;2.75;1.75;;;;;;;;5049729;28;8895;-66
2024/02/27 21:59:47;;;;;;;;;1.50;1.25;;;;;;;;5049584;28;11462;-66
2024/02/27 22:02:13;;;;;;;;;5.25;3.00;;;;;;;;5019069;28;10877;-66
2024/02/27 22:04:39;;;;;;;;;2.50;1.25;;;;;;;;5055550;28;9020;-66
2024/02/27 22:07:04;;;;;;;;;2.00;2.00;;;;;;;;5061747;28;8901;-65
2024/02/27 22:09:30;;;;;;;;;3.50;2.00;;;;;;;;5028806;28;8824;-67
2024/02/27 22:11:55;;;;;;;;;1.75;0.75;;;;;;;;5029814;28;8861;-72
2024/02/27 22:14:21;;;;;;;;;1.00;1.00;;;;;;;;5029881;28;8799;-66
2024/02/27 22:16:46;;;;;;;;;1.00;1.00;;;;;;;;5029923;28;8811;-67
2024/02/27 22:19:12;;;;;;;;;1.50;1.00;;;;;;;;5029754;28;8842;-68
2024/02/27 22:21:38;;;;;;;;;0.50;0.25;;;;;;;;5029948;28;8779;-67
2024/02/27 22:24:03;;;;;;;;;0.75;0.75;;;;;;;;5029861;28;9506;-67
2024/02/27 22:26:29;;;;;;;;;2.25;1.00;;;;;;;;5049155;28;11437;-67
2024/02/27 22:28:54;;;;;;;;;1.25;1.25;;;;;;;;5048130;28;8809;-66
2024/02/27 22:31:19;;;;;;;;;3.25;1.00;;;;;;;;5048308;28;8808;-67
2024/02/27 22:33:45;;;;;;;;;0.50;0.25;;;;;;;;5049625;28;8799;-67
2024/02/27 22:36:10;;;;;;;;;0.50;0.50;;;;;;;;5049698;28;8922;-67
2024/02/27 22:38:36;;;;;;;;;2.25;1.00;;;;;;;;5049594;28;8823;-67
2024/02/27 22:41:06;;;;;;;;;2.75;1.00;;;;;;;;5048442;28;8809;-67
2024/02/27 22:43:31;;;;;;;;;1.00;1.00;;;;;;;;5049551;28;8797;-66
2024/02/27 22:45:57;;;;;;;;;2.00;2.00;;;;;;;;5049408;28;11432;-66
2024/02/27 22:48:22;;;;;;;;;5.00;1.00;;;;;;;;5049664;28;8793;-67
2024/02/27 22:50:48;;;;;;;;;2.25;1.00;;;;;;;;5049586;28;8824;-66
2024/02/27 22:53:13;;;;;;;;;1.00;1.00;;;;;;;;5048154;28;9627;-66
2024/02/27 22:55:39;;;;;;;;;3.00;3.00;;;;;;;;5050024;28;8874;-67
2024/02/27 22:58:04;;;;;;;;;6.25;2.50;;;;;;;;5051447;28;8885;-66
2024/02/27 23:00:29;;;;;;;;;5.00;3.00;;;;;;;;5051911;28;8820;-66
2024/02/27 23:02:55;;;;;;;;;2.25;1.00;;;;;;;;5052866;28;8839;-66
2024/02/27 23:05:20;;;;;;;;;3.00;2.00;;;;;;;;5053158;28;9427;-67
2024/02/27 23:07:46;;;;;;;;;1.50;1.00;;;;;;;;5052976;28;8927;-68
2024/02/27 23:10:17;;;;;;;;;2.50;2.00;;;;;;;;5052676;28;8821;-67
2024/02/27 23:12:42;;;;;;;;;5.75;2.75;;;;;;;;5052693;28;9525;-67
